Bahawalpur Weather



Bahawalpur's Current Weather

Temprature 41.25o overcast clouds

overcast clouds

Rain: 0 %

Min Temprature41.25o
Max Temprature41.25o
Humidity11
Wind Speed5.54 m/h
Sun Rise05:25:48
Sun Set18:53:43
Current Time: 08-May-2021 15:29:39
Lat/Lon: 29.4, 71.6833




Bahawalpur's Geo Location



Bahawalpur's Weather Forecast

Time Overall Temp Min Temp Max Temp Humidity Wind Speed Rain
08-May-2021 (Sat)
17:00:00 overcast clouds 40.960 40.480 40.960 11 4.97 m/h 0 %
20:00:00 overcast clouds 38.890 37.730 38.890 12 2.68 m/h 0 %
23:00:00 overcast clouds 33.370 33.370 33.370 22 3.94 m/h 0 %
09-May-2021 (Sun)
02:00:00 overcast clouds 31.720 31.720 31.720 25 3.87 m/h 0 %
05:00:00 broken clouds 30.750 30.750 30.750 24 3.71 m/h 0 %
08:00:00 clear sky 34.510 34.510 34.510 20 4.13 m/h 0 %
11:00:00 clear sky 40.110 40.110 40.110 13 2.79 m/h 0 %
14:00:00 scattered clouds 42.520 42.520 42.520 9 3.27 m/h 0 %
17:00:00 broken clouds 42.180 42.180 42.180 9 3.93 m/h 0 %
20:00:00 scattered clouds 37.760 37.760 37.760 13 3.43 m/h 0 %
23:00:00 few clouds 35.290 35.290 35.290 15 0.85 m/h 0 %
10-May-2021 (Mon)
02:00:00 light rain 33.090 33.090 33.090 20 3.6 m/h 10 %
05:00:00 few clouds 31.440 31.440 31.440 23 4.1 m/h 0 %
08:00:00 few clouds 35.860 35.860 35.860 21 5.27 m/h 0 %
11:00:00 few clouds 41.180 41.180 41.180 13 3.42 m/h 0 %
14:00:00 scattered clouds 43.210 43.210 43.210 9 3.44 m/h 0 %
17:00:00 light rain 40.360 40.360 40.360 12 6.09 m/h 15 %
20:00:00 broken clouds 34.000 34.000 34.000 21 4.75 m/h 0 %
23:00:00 light rain 33.130 33.130 33.130 22 1.96 m/h 27 %
11-May-2021 (Tue)
02:00:00 overcast clouds 32.270 32.270 32.270 25 4.89 m/h 0 %
05:00:00 broken clouds 30.570 30.570 30.570 32 4.05 m/h 0 %
08:00:00 broken clouds 34.270 34.270 34.270 32 5.72 m/h 0 %
11:00:00 scattered clouds 40.880 40.880 40.880 17 4.88 m/h 0 %
14:00:00 clear sky 43.610 43.610 43.610 11 5.14 m/h 0 %
17:00:00 few clouds 42.960 42.960 42.960 11 7.22 m/h 0 %
20:00:00 light rain 33.450 33.450 33.450 25 7.53 m/h 70 %
23:00:00 light rain 32.180 32.180 32.180 32 8.7 m/h 52 %
12-May-2021 (Wed)
02:00:00 broken clouds 30.730 30.730 30.730 38 9.99 m/h 0 %
05:00:00 broken clouds 29.740 29.740 29.740 40 7.52 m/h 0 %
08:00:00 broken clouds 32.460 32.460 32.460 33 4.15 m/h 0 %
11:00:00 broken clouds 36.830 36.830 36.830 22 2.54 m/h 0 %
14:00:00 broken clouds 39.840 39.840 39.840 15 2.28 m/h 0 %
17:00:00 scattered clouds 40.790 40.790 40.790 13 3.33 m/h 0 %
20:00:00 clear sky 28.720 28.720 28.720 41 12.71 m/h 0 %
23:00:00 clear sky 28.720 28.720 28.720 47 10.77 m/h 0 %
13-May-2021 (Thu)
02:00:00 scattered clouds 28.370 28.370 28.370 48 5.31 m/h 0 %
05:00:00 few clouds 27.480 27.480 27.480 50 6.36 m/h 0 %
08:00:00 clear sky 30.370 30.370 30.370 41 6.35 m/h 0 %
11:00:00 clear sky 36.040 36.040 36.040 25 5.85 m/h 0 %
14:00:00 clear sky 38.400 38.400 38.400 21 5.28 m/h 0 %


Bahawalpur's Tourist Spots

Historical Places in Bahawalpur

Famous Cities (60)